Time;durP1;ratioP1;P1;durP2;ratioP2;P2;SDS_P1;SDS_P2;PMS_P1;PMS_P2;Temp;Humidity;BMP_temperature;BMP_pressure;BME280_temperature;BME280_humidity;BME280_pressure;Samples;Min_cycle;Max_cycle;Signal;HPM_P1;HPM_P2
2023/12/31 00:01:03;;;;;;;3.78;1.40;;;7.80;99.90;;;;;;5082883;28;20042;-73
2023/12/31 00:03:29;;;;;;;1.02;0.85;;;7.80;99.90;;;;;;4982851;28;20072;-73
2023/12/31 00:05:54;;;;;;;3.33;0.85;;;7.80;99.90;;;;;;5016230;28;20038;-73
2023/12/31 00:08:20;;;;;;;2.30;1.10;;;7.80;99.90;;;;;;4964021;28;20050;-73
2023/12/31 00:10:46;;;;;;;2.88;1.20;;;7.80;99.90;;;;;;4979189;28;20069;-73
2023/12/31 00:13:11;;;;;;;1.23;0.77;;;7.80;99.90;;;;;;5065306;28;20040;-73
2023/12/31 00:15:37;;;;;;;3.53;1.20;;;7.80;99.90;;;;;;5014822;28;20116;-73
2023/12/31 00:18:03;;;;;;;1.83;1.17;;;7.70;99.90;;;;;;5017932;28;20048;-73
2023/12/31 00:20:29;;;;;;;2.30;0.93;;;7.70;99.90;;;;;;5026540;28;20561;-73
2023/12/31 00:22:54;;;;;;;2.00;0.98;;;7.70;99.90;;;;;;5003624;28;20053;-73
2023/12/31 00:25:20;;;;;;;2.25;0.90;;;7.70;99.90;;;;;;5038909;28;20111;-73
2023/12/31 00:27:46;;;;;;;2.55;1.10;;;7.70;99.90;;;;;;5053915;28;20046;-73
2023/12/31 00:30:12;;;;;;;1.48;1.20;;;7.70;99.90;;;;;;4995277;28;20043;-73
2023/12/31 00:32:37;;;;;;;1.35;0.77;;;7.80;99.90;;;;;;5013275;28;20045;-73
2023/12/31 00:35:04;;;;;;;2.40;0.63;;;7.80;99.90;;;;;;5023817;28;20231;-73
2023/12/31 00:37:29;;;;;;;2.03;0.80;;;7.80;99.90;;;;;;4978691;28;20050;-73
2023/12/31 00:39:55;;;;;;;1.70;1.27;;;7.80;99.90;;;;;;4972702;28;20118;-73
2023/12/31 00:42:21;;;;;;;1.75;0.82;;;7.80;99.90;;;;;;4981897;28;20057;-73
2023/12/31 00:44:46;;;;;;;1.50;0.77;;;7.80;99.90;;;;;;4983148;28;20049;-73
2023/12/31 00:47:12;;;;;;;2.17;0.85;;;7.80;99.90;;;;;;4981943;28;20452;-74
2023/12/31 00:49:38;;;;;;;2.70;0.90;;;7.90;99.90;;;;;;4994938;28;20042;-73
2023/12/31 00:52:03;;;;;;;1.33;0.60;;;7.80;99.90;;;;;;5032355;28;20038;-73
2023/12/31 00:54:29;;;;;;;1.35;0.75;;;7.90;99.90;;;;;;5003639;28;20065;-73
2023/12/31 00:56:55;;;;;;;2.05;1.20;;;7.80;99.90;;;;;;4981710;28;20046;-74
2023/12/31 00:59:21;;;;;;;2.90;1.30;;;7.90;99.90;;;;;;4998436;28;20553;-73
2023/12/31 01:01:47;;;;;;;1.45;0.95;;;7.80;99.90;;;;;;4996177;28;20046;-73
2023/12/31 01:04:13;;;;;;;1.85;0.82;;;7.80;99.90;;;;;;4989621;28;20041;-74
2023/12/31 01:06:39;;;;;;;1.27;0.65;;;7.80;99.90;;;;;;4990824;28;20066;-73
2023/12/31 01:09:06;;;;;;;0.65;0.65;;;7.80;99.90;;;;;;4967546;28;20042;-73
2023/12/31 01:11:32;;;;;;;8.68;1.13;;;7.80;99.90;;;;;;4985984;28;20506;-73
2023/12/31 01:13:57;;;;;;;3.00;1.00;;;7.80;99.90;;;;;;4995695;28;20050;-73
2023/12/31 01:16:23;;;;;;;2.83;0.80;;;7.80;99.90;;;;;;4996786;28;20057;-73
2023/12/31 01:18:49;;;;;;;0.82;0.73;;;7.80;99.90;;;;;;4976635;28;20033;-73
2023/12/31 01:21:14;;;;;;;3.40;1.35;;;7.80;99.90;;;;;;4983237;28;20034;-73
2023/12/31 01:23:40;;;;;;;0.95;0.40;;;7.80;99.90;;;;;;4993633;28;20046;-73
2023/12/31 01:26:06;;;;;;;1.02;0.80;;;7.80;99.90;;;;;;4964171;28;20102;-73
2023/12/31 01:28:31;;;;;;;0.65;0.60;;;7.80;99.90;;;;;;5009257;28;20046;-73
2023/12/31 01:30:57;;;;;;;0.93;0.47;;;7.80;99.90;;;;;;5039550;28;20069;-73
2023/12/31 01:33:22;;;;;;;0.57;0.57;;;7.80;99.90;;;;;;4980193;28;20694;-73
2023/12/31 01:35:48;;;;;;;1.35;0.90;;;7.80;99.90;;;;;;4983262;28;20053;-73
2023/12/31 01:38:14;;;;;;;2.22;1.13;;;7.80;99.90;;;;;;5000258;28;20102;-73
2023/12/31 01:40:39;;;;;;;1.88;0.50;;;7.90;99.90;;;;;;4964752;28;20054;-73
2023/12/31 01:43:05;;;;;;;4.05;0.60;;;7.90;99.90;;;;;;4981184;28;20557;-73
2023/12/31 01:45:31;;;;;;;1.02;0.73;;;7.90;99.90;;;;;;4959169;28;20709;-73
2023/12/31 01:47:57;;;;;;;0.40;0.32;;;7.90;99.90;;;;;;4973674;28;20053;-73
2023/12/31 01:50:24;;;;;;;2.95;0.57;;;7.90;99.90;;;;;;4979696;28;20047;-73
2023/12/31 01:52:51;;;;;;;0.60;0.40;;;7.90;99.90;;;;;;5023699;28;20049;-73
2023/12/31 01:55:17;;;;;;;0.75;0.52;;;7.90;99.90;;;;;;4989384;28;20042;-73
2023/12/31 01:57:43;;;;;;;2.03;0.75;;;7.90;99.90;;;;;;5008385;28;20042;-73
2023/12/31 02:00:10;;;;;;;1.58;0.60;;;7.90;99.90;;;;;;4998185;28;20113;-73
2023/12/31 02:02:36;;;;;;;5.43;0.93;;;8.00;99.90;;;;;;5006272;28;20049;-73
2023/12/31 02:05:02;;;;;;;1.17;0.60;;;8.00;99.90;;;;;;5010234;28;20049;-73
2023/12/31 02:07:28;;;;;;;0.40;0.40;;;8.00;99.90;;;;;;5031162;28;20071;-73
2023/12/31 02:09:54;;;;;;;3.03;0.60;;;8.00;99.90;;;;;;4989458;28;20049;-73
2023/12/31 02:12:20;;;;;;;1.45;0.80;;;8.00;99.90;;;;;;5000654;28;20569;-73
2023/12/31 02:14:45;;;;;;;2.80;0.98;;;8.00;99.90;;;;;;5018732;28;20187;-73
2023/12/31 02:17:11;;;;;;;1.15;0.80;;;7.90;99.90;;;;;;5049579;28;20060;-73
2023/12/31 02:19:37;;;;;;;2.88;1.17;;;7.90;99.90;;;;;;4989274;28;20042;-73
2023/12/31 02:22:03;;;;;;;1.52;0.82;;;8.00;99.90;;;;;;5018822;28;20235;-73
2023/12/31 02:24:33;;;;;;;0.85;0.70;;;7.90;99.90;;;;;;4993672;28;20049;-73
2023/12/31 02:26:59;;;;;;;1.38;0.73;;;7.90;99.90;;;;;;5023490;28;20107;-73
2023/12/31 02:29:25;;;;;;;0.68;0.52;;;8.00;99.90;;;;;;5020153;28;20049;-73
2023/12/31 02:31:50;;;;;;;0.52;0.45;;;8.00;99.90;;;;;;4984110;28;20056;-73
2023/12/31 02:34:16;;;;;;;1.02;0.65;;;8.00;99.90;;;;;;5011748;28;20608;-74
2023/12/31 02:36:42;;;;;;;2.72;0.85;;;8.00;99.90;;;;;;4995883;28;20102;-73
2023/12/31 02:39:07;;;;;;;0.85;0.50;;;8.00;99.90;;;;;;4987399;28;20140;-73
2023/12/31 02:41:34;;;;;;;1.00;0.60;;;8.10;99.90;;;;;;4980739;28;20050;-73
2023/12/31 02:44:01;;;;;;;5.40;1.02;;;8.10;99.90;;;;;;4979631;28;20091;-73
2023/12/31 02:46:27;;;;;;;1.52;0.85;;;8.10;99.90;;;;;;4981031;28;20125;-74
2023/12/31 02:48:52;;;;;;;4.93;0.85;;;8.10;99.90;;;;;;5015255;28;20073;-74
2023/12/31 02:51:18;;;;;;;2.88;1.13;;;8.10;99.90;;;;;;5040239;28;20104;-74
2023/12/31 02:53:44;;;;;;;2.10;1.25;;;8.10;99.90;;;;;;5000496;28;20046;-73
2023/12/31 02:56:09;;;;;;;1.45;0.93;;;8.00;99.90;;;;;;5043982;28;20151;-73
2023/12/31 02:58:35;;;;;;;2.53;1.30;;;8.00;99.90;;;;;;4988592;28;20033;-73
2023/12/31 03:01:01;;;;;;;6.55;1.23;;;8.00;99.90;;;;;;5020098;28;20557;-73
2023/12/31 03:03:26;;;;;;;2.85;1.48;;;7.90;99.90;;;;;;5024689;28;20112;-73
2023/12/31 03:05:52;;;;;;;1.38;0.90;;;7.90;99.90;;;;;;4982119;28;20570;-74
2023/12/31 03:08:18;;;;;;;1.48;0.85;;;8.00;99.90;;;;;;4997151;28;20034;-73
2023/12/31 03:10:44;;;;;;;0.60;0.60;;;8.00;99.90;;;;;;5019929;28;20076;-73
2023/12/31 03:13:09;;;;;;;2.40;0.90;;;8.00;99.90;;;;;;4998029;28;20092;-73
2023/12/31 03:15:35;;;;;;;5.07;1.25;;;8.10;99.90;;;;;;5045595;28;20046;-73
2023/12/31 03:18:01;;;;;;;2.25;1.27;;;8.10;99.90;;;;;;5036216;28;20080;-73
2023/12/31 03:20:26;;;;;;;0.90;0.63;;;8.10;99.90;;;;;;5006000;28;20101;-73
2023/12/31 03:22:52;;;;;;;1.40;0.90;;;8.20;99.90;;;;;;4994825;28;20038;-73
2023/12/31 03:25:18;;;;;;;1.27;0.77;;;8.20;99.90;;;;;;4960968;28;20093;-73
2023/12/31 03:27:45;;;;;;;0.98;0.70;;;8.20;99.90;;;;;;4991089;28;20109;-73
2023/12/31 03:30:11;;;;;;;1.05;0.75;;;8.20;99.90;;;;;;4975033;28;20133;-73
2023/12/31 03:32:37;;;;;;;1.02;0.60;;;8.20;99.90;;;;;;4995163;28;20032;-74
2023/12/31 03:35:03;;;;;;;2.25;0.77;;;8.20;99.90;;;;;;4995041;28;20125;-73
2023/12/31 03:37:30;;;;;;;1.05;0.73;;;8.20;99.90;;;;;;4983413;28;20054;-73
2023/12/31 03:39:56;;;;;;;1.15;0.85;;;8.20;99.90;;;;;;4992162;28;20102;-73
2023/12/31 03:42:22;;;;;;;1.48;0.82;;;8.20;99.90;;;;;;4990527;28;20121;-73
2023/12/31 03:44:48;;;;;;;1.40;0.60;;;8.10;99.90;;;;;;5003313;28;20110;-74
2023/12/31 03:47:13;;;;;;;1.88;0.70;;;8.20;99.90;;;;;;5012809;28;20101;-73
2023/12/31 03:49:39;;;;;;;2.45;0.95;;;8.20;99.90;;;;;;4994440;28;20033;-73
2023/12/31 03:52:06;;;;;;;0.82;0.70;;;8.20;99.90;;;;;;5002393;28;20053;-73
2023/12/31 03:54:32;;;;;;;3.80;0.82;;;8.20;99.90;;;;;;5020928;28;20398;-73
2023/12/31 03:56:58;;;;;;;2.40;0.82;;;8.20;99.90;;;;;;5014884;28;20042;-73
2023/12/31 03:59:24;;;;;;;1.30;1.10;;;8.20;99.90;;;;;;4979819;28;20042;-74
2023/12/31 04:01:56;;;;;;;1.95;1.02;;;8.20;99.90;;;;;;4983931;28;20042;-73
2023/12/31 04:04:21;;;;;;;1.48;0.88;;;8.20;99.90;;;;;;4996451;28;20050;-73
2023/12/31 04:06:47;;;;;;;1.00;0.90;;;8.20;99.90;;;;;;4988403;28;20069;-73
2023/12/31 04:09:13;;;;;;;1.60;1.08;;;8.20;99.90;;;;;;5029146;28;20437;-73
2023/12/31 04:11:38;;;;;;;2.80;0.93;;;8.20;99.90;;;;;;5069560;28;20048;-73
2023/12/31 04:14:04;;;;;;;1.10;0.88;;;8.20;99.90;;;;;;4995326;28;20116;-73
2023/12/31 04:16:30;;;;;;;1.65;1.10;;;8.20;99.90;;;;;;5005397;28;20048;-73
2023/12/31 04:18:56;;;;;;;1.20;0.90;;;8.10;99.90;;;;;;4989956;28;20077;-74
2023/12/31 04:21:21;;;;;;;0.63;0.63;;;8.20;99.90;;;;;;5022166;28;20067;-73
2023/12/31 04:23:47;;;;;;;1.65;0.80;;;8.20;99.90;;;;;;5021453;28;20072;-73
2023/12/31 04:26:13;;;;;;;2.22;1.08;;;8.20;99.90;;;;;;4972598;28;20532;-73
2023/12/31 04:28:38;;;;;;;1.00;0.90;;;8.20;99.90;;;;;;5055650;28;20043;-73
2023/12/31 04:31:04;;;;;;;2.88;0.82;;;8.30;99.90;;;;;;4972169;28;20054;-73
2023/12/31 04:33:30;;;;;;;2.35;0.82;;;8.20;99.90;;;;;;5019672;28;20565;-73
2023/12/31 04:35:56;;;;;;;1.75;1.08;;;8.30;99.90;;;;;;4973136;28;20042;-73
2023/12/31 04:38:23;;;;;;;0.82;0.80;;;8.30;99.90;;;;;;5005830;28;20127;-73
2023/12/31 04:40:48;;;;;;;1.67;0.80;;;8.30;99.90;;;;;;4983914;28;20540;-73
2023/12/31 04:43:14;;;;;;;1.33;0.88;;;8.30;99.90;;;;;;4992055;28;20034;-73
2023/12/31 04:45:40;;;;;;;2.42;0.85;;;8.30;99.90;;;;;;4971731;28;20038;-73
2023/12/31 04:48:06;;;;;;;1.65;0.82;;;8.30;99.90;;;;;;4959705;28;20102;-73
2023/12/31 04:50:31;;;;;;;3.38;0.93;;;8.30;99.90;;;;;;4962858;28;20045;-73
2023/12/31 04:52:57;;;;;;;1.45;0.70;;;8.30;99.90;;;;;;5015943;28;20046;-74
2023/12/31 04:55:23;;;;;;;0.90;0.60;;;8.40;99.90;;;;;;4963249;28;20057;-74
2023/12/31 04:57:49;;;;;;;1.52;0.70;;;8.30;99.90;;;;;;5016929;28;20494;-74
2023/12/31 05:00:15;;;;;;;2.50;0.93;;;8.40;99.90;;;;;;5002630;28;20081;-73
2023/12/31 05:02:41;;;;;;;1.55;0.82;;;8.30;99.90;;;;;;4977922;28;20058;-74
2023/12/31 05:05:07;;;;;;;1.35;1.20;;;8.30;99.90;;;;;;4995124;28;20054;-74
2023/12/31 05:07:33;;;;;;;1.88;1.05;;;8.30;99.90;;;;;;4996250;28;20638;-73
2023/12/31 05:09:58;;;;;;;1.00;0.90;;;8.30;99.90;;;;;;5003378;28;20042;-73
2023/12/31 05:12:24;;;;;;;2.30;1.00;;;8.30;99.90;;;;;;5004279;28;20056;-73
2023/12/31 05:14:50;;;;;;;2.58;0.95;;;8.30;99.90;;;;;;4998447;28;20053;-73
2023/12/31 05:17:15;;;;;;;2.35;1.00;;;8.30;99.90;;;;;;5000144;28;20518;-73
2023/12/31 05:19:41;;;;;;;3.20;1.17;;;8.40;99.90;;;;;;5018133;28;20125;-73
2023/12/31 05:22:07;;;;;;;2.13;1.25;;;8.30;99.90;;;;;;4996157;28;20054;-73
2023/12/31 05:24:33;;;;;;;3.78;1.48;;;8.30;99.90;;;;;;5000415;28;20037;-73
2023/12/31 05:26:58;;;;;;;1.88;0.95;;;8.40;99.90;;;;;;4990017;28;20038;-73
2023/12/31 05:29:24;;;;;;;1.27;1.02;;;8.30;99.90;;;;;;5026741;28;20072;-73
2023/12/31 05:31:50;;;;;;;4.03;1.33;;;8.30;99.90;;;;;;4986108;28;20431;-73
2023/12/31 05:34:15;;;;;;;3.15;1.10;;;8.30;99.90;;;;;;4983968;28;20034;-73
2023/12/31 05:36:41;;;;;;;0.85;0.85;;;8.30;99.90;;;;;;4983774;28;20087;-73
2023/12/31 05:39:08;;;;;;;8.45;1.60;;;8.30;99.90;;;;;;5018301;28;20050;-73
2023/12/31 05:41:33;;;;;;;3.53;1.35;;;8.20;99.90;;;;;;4983012;28;20049;-73
2023/12/31 05:44:00;;;;;;;1.15;0.93;;;8.20;99.90;;;;;;4980216;28;20039;-73
2023/12/31 05:46:26;;;;;;;3.35;1.23;;;8.20;99.90;;;;;;4965193;28;20098;-73
2023/12/31 05:48:51;;;;;;;1.42;1.05;;;8.20;99.90;;;;;;4974449;28;20523;-73
2023/12/31 05:51:17;;;;;;;1.83;1.00;;;8.20;99.90;;;;;;4977967;28;20034;-73
2023/12/31 05:53:43;;;;;;;2.75;0.95;;;8.20;99.90;;;;;;4964253;28;20050;-73
2023/12/31 05:56:09;;;;;;;2.20;1.00;;;8.20;99.90;;;;;;4994681;28;20050;-73
2023/12/31 05:58:35;;;;;;;0.77;0.75;;;8.20;99.90;;;;;;4979702;28;20038;-73
2023/12/31 06:01:02;;;;;;;1.95;0.90;;;8.20;99.90;;;;;;4961328;28;20052;-73
2023/12/31 06:03:27;;;;;;;2.15;1.30;;;8.20;99.90;;;;;;4977714;28;20048;-73
2023/12/31 06:05:53;;;;;;;3.47;1.48;;;8.20;99.90;;;;;;5016909;28;20528;-73
2023/12/31 06:08:18;;;;;;;1.85;1.33;;;8.20;99.90;;;;;;5009959;28;20041;-73
2023/12/31 06:10:44;;;;;;;1.45;0.95;;;8.20;99.90;;;;;;5031292;28;20124;-73
2023/12/31 06:13:10;;;;;;;0.82;0.82;;;8.20;99.90;;;;;;5020880;28;20054;-73
2023/12/31 06:15:36;;;;;;;1.27;1.10;;;8.20;99.90;;;;;;4984220;28;20080;-73
2023/12/31 06:18:01;;;;;;;3.67;1.17;;;8.20;99.90;;;;;;5019087;28;20064;-73
2023/12/31 06:20:27;;;;;;;1.75;0.93;;;8.20;99.90;;;;;;5035841;28;20537;-73
2023/12/31 06:22:53;;;;;;;4.65;1.30;;;8.20;99.90;;;;;;5004287;28;20082;-73
2023/12/31 06:25:19;;;;;;;1.33;0.93;;;8.20;99.90;;;;;;4985623;28;20113;-73
2023/12/31 06:27:45;;;;;;;2.88;1.02;;;8.20;99.90;;;;;;5001042;28;20038;-73
2023/12/31 06:30:11;;;;;;;4.68;1.50;;;8.20;99.90;;;;;;5027705;28;20062;-73
2023/12/31 06:32:37;;;;;;;2.58;1.42;;;8.20;99.90;;;;;;4969766;28;20103;-73
2023/12/31 06:35:03;;;;;;;1.95;0.80;;;8.20;99.90;;;;;;5016390;28;20075;-73
2023/12/31 06:37:29;;;;;;;1.92;0.90;;;8.20;99.90;;;;;;5028912;28;20062;-73
2023/12/31 06:39:54;;;;;;;1.83;1.08;;;8.20;99.90;;;;;;5019014;28;20049;-73
2023/12/31 06:42:20;;;;;;;4.30;0.88;;;8.20;99.90;;;;;;5004870;28;20049;-73
2023/12/31 06:44:46;;;;;;;1.15;0.98;;;8.20;99.90;;;;;;4964052;28;20034;-73
2023/12/31 06:47:12;;;;;;;2.75;1.17;;;8.20;99.90;;;;;;4965072;28;20113;-73
2023/12/31 06:49:38;;;;;;;1.30;1.20;;;8.20;99.90;;;;;;4994022;28;20049;-73
2023/12/31 06:52:04;;;;;;;2.25;1.17;;;8.20;99.90;;;;;;4989280;28;20070;-73
2023/12/31 06:54:29;;;;;;;2.78;1.55;;;8.20;99.90;;;;;;5011750;28;21879;-73
2023/12/31 06:56:55;;;;;;;1.17;0.93;;;8.20;99.90;;;;;;4971408;28;20110;-73
2023/12/31 06:59:22;;;;;;;0.85;0.80;;;8.20;99.90;;;;;;4993418;28;20141;-73
2023/12/31 07:01:48;;;;;;;1.77;1.10;;;8.20;99.90;;;;;;4976992;28;20046;-73
2023/12/31 07:04:13;;;;;;;4.03;1.30;;;8.30;99.90;;;;;;4968552;28;20057;-73
2023/12/31 07:06:39;;;;;;;2.67;1.25;;;8.30;99.90;;;;;;4970596;28;20101;-73
2023/12/31 07:09:05;;;;;;;0.85;0.60;;;8.30;99.90;;;;;;4984673;28;20042;-73
2023/12/31 07:11:31;;;;;;;1.42;1.05;;;8.40;99.90;;;;;;5005354;28;20388;-73
2023/12/31 07:13:56;;;;;;;1.63;0.90;;;8.50;99.90;;;;;;5024294;28;20045;-73
2023/12/31 07:16:22;;;;;;;1.58;1.05;;;8.60;99.90;;;;;;5083981;28;20038;-73
2023/12/31 07:18:48;;;;;;;1.48;0.75;;;8.60;99.90;;;;;;4966241;28;20048;-73
2023/12/31 07:21:23;;;;;;;2.75;1.25;;;8.60;99.90;;;;;;4975847;28;20421;-73
2023/12/31 07:23:49;;;;;;;3.15;1.05;;;8.60;99.90;;;;;;5011517;28;20057;-73
2023/12/31 07:26:28;;;;;;;1.88;1.30;;;8.60;99.90;;;;;;5009221;28;20138;-73
2023/12/31 07:28:54;;;;;;;2.92;1.05;;;8.60;99.90;;;;;;4995756;28;20042;-73
2023/12/31 07:31:23;;;;;;;1.50;0.95;;;8.60;99.90;;;;;;4992295;28;20577;-73
2023/12/31 07:33:50;;;;;;;3.88;1.73;;;8.60;99.90;;;;;;4974558;28;20057;-73
2023/12/31 07:36:16;;;;;;;2.78;0.93;;;8.70;99.90;;;;;;4992386;28;20066;-73
2023/12/31 07:38:44;;;;;;;4.10;1.30;;;8.70;99.90;;;;;;5003595;28;20506;-73
2023/12/31 07:41:12;;;;;;;1.80;1.13;;;8.70;99.90;;;;;;4967418;28;20043;-73
2023/12/31 07:43:38;;;;;;;1.70;1.00;;;8.70;99.90;;;;;;5003767;28;20109;-73
2023/12/31 07:46:05;;;;;;;1.88;1.10;;;8.80;99.90;;;;;;5013205;28;20069;-73
2023/12/31 07:48:30;;;;;;;3.00;1.67;;;8.80;99.90;;;;;;5037772;28;20086;-73
2023/12/31 07:50:56;;;;;;;2.50;0.95;;;8.80;99.90;;;;;;4977841;28;20037;-73
2023/12/31 07:53:22;;;;;;;2.72;1.10;;;8.80;99.90;;;;;;4999494;28;20052;-74
2023/12/31 07:55:47;;;;;;;2.67;1.35;;;8.80;99.90;;;;;;4988496;28;20114;-74
2023/12/31 07:58:13;;;;;;;2.53;1.20;;;8.80;99.90;;;;;;4980771;28;20128;-74
2023/12/31 08:00:39;;;;;;;3.28;1.35;;;8.80;99.90;;;;;;4989576;28;20064;-73
2023/12/31 08:03:04;;;;;;;3.50;1.17;;;8.90;99.90;;;;;;4985352;28;20395;-73
2023/12/31 08:05:32;;;;;;;2.22;1.17;;;8.80;99.90;;;;;;4990325;28;20471;-74
2023/12/31 08:07:58;;;;;;;2.95;1.10;;;8.90;99.90;;;;;;5004114;28;20055;-74
2023/12/31 08:10:23;;;;;;;1.42;1.02;;;8.90;99.90;;;;;;5028457;28;20046;-74
2023/12/31 08:12:49;;;;;;;1.80;0.98;;;8.90;99.90;;;;;;5030871;28;20064;-73
2023/12/31 08:15:15;;;;;;;1.95;1.02;;;8.90;99.90;;;;;;4973449;28;20048;-73
2023/12/31 08:17:42;;;;;;;1.73;1.10;;;9.00;99.90;;;;;;4980680;28;20077;-74
2023/12/31 08:20:08;;;;;;;1.30;0.88;;;9.00;99.90;;;;;;4995043;28;20411;-74
2023/12/31 08:22:34;;;;;;;2.05;1.17;;;9.00;99.90;;;;;;5007690;28;20067;-73
2023/12/31 08:25:00;;;;;;;2.65;0.98;;;9.00;99.90;;;;;;4970730;28;20064;-73
2023/12/31 08:27:26;;;;;;;1.73;0.73;;;9.00;99.90;;;;;;4998409;28;20116;-74
2023/12/31 08:29:51;;;;;;;2.35;1.33;;;9.00;99.90;;;;;;5000643;28;20050;-74
2023/12/31 08:32:18;;;;;;;1.98;1.10;;;9.00;99.90;;;;;;4985465;28;20066;-74
2023/12/31 08:34:45;;;;;;;2.17;1.05;;;9.00;99.90;;;;;;5051798;28;20789;-80
2023/12/31 08:37:11;;;;;;;3.33;1.20;;;9.00;99.90;;;;;;5007384;28;20056;-74
2023/12/31 08:39:41;;;;;;;3.88;1.38;;;9.00;99.90;;;;;;4982068;28;20133;-73
2023/12/31 08:42:06;;;;;;;2.50;1.27;;;9.10;99.90;;;;;;5080897;28;20062;-74
2023/12/31 08:44:32;;;;;;;1.52;1.08;;;9.10;99.90;;;;;;5012824;28;20137;-74
2023/12/31 08:46:58;;;;;;;1.33;1.00;;;9.10;99.90;;;;;;4981477;28;20486;-73
2023/12/31 08:49:26;;;;;;;3.70;1.38;;;9.10;99.90;;;;;;4997509;28;20050;-74
2023/12/31 08:51:51;;;;;;;1.23;0.95;;;9.20;99.90;;;;;;4983520;28;20050;-74
2023/12/31 08:54:17;;;;;;;2.30;1.10;;;9.20;99.90;;;;;;4981722;28;20056;-74
2023/12/31 08:56:44;;;;;;;2.00;1.08;;;9.30;99.90;;;;;;4981992;28;20081;-73
2023/12/31 08:59:09;;;;;;;4.70;1.35;;;9.20;99.90;;;;;;4996837;28;20057;-74
2023/12/31 09:01:35;;;;;;;2.40;1.15;;;9.20;99.90;;;;;;4997682;28;20107;-74
2023/12/31 09:04:00;;;;;;;1.25;0.98;;;9.20;99.90;;;;;;4981349;28;20076;-74
2023/12/31 09:06:26;;;;;;;1.45;1.00;;;9.20;99.90;;;;;;4997741;28;20049;-74
2023/12/31 09:08:52;;;;;;;1.63;1.02;;;9.20;99.90;;;;;;5001933;28;20046;-74
2023/12/31 09:11:19;;;;;;;3.67;0.95;;;9.20;99.90;;;;;;4968586;28;20046;-74
2023/12/31 09:13:45;;;;;;;1.27;0.82;;;9.20;99.90;;;;;;5002021;28;20050;-74
2023/12/31 09:16:11;;;;;;;2.33;1.52;;;9.20;99.90;;;;;;5000134;28;20068;-74
2023/12/31 09:18:37;;;;;;;2.55;1.15;;;9.20;99.90;;;;;;5067506;28;20548;-74
2023/12/31 09:21:03;;;;;;;3.58;1.58;;;9.20;99.90;;;;;;4982493;28;20057;-73
2023/12/31 09:23:29;;;;;;;3.70;1.30;;;9.20;99.90;;;;;;4998020;28;20041;-74
2023/12/31 09:25:55;;;;;;;3.90;1.48;;;9.20;99.90;;;;;;4985445;28;20061;-73
2023/12/31 09:28:21;;;;;;;2.75;1.33;;;9.20;99.90;;;;;;4967978;28;20063;-74
2023/12/31 09:30:46;;;;;;;2.17;1.73;;;9.30;99.90;;;;;;4982509;28;20079;-73
2023/12/31 09:33:13;;;;;;;2.75;1.27;;;9.30;99.90;;;;;;4982179;28;20041;-74
2023/12/31 09:35:38;;;;;;;2.85;1.52;;;9.30;99.90;;;;;;4980169;28;20532;-74
2023/12/31 09:38:04;;;;;;;2.35;1.52;;;9.40;99.90;;;;;;4981814;28;20082;-74
2023/12/31 09:40:30;;;;;;;2.47;1.50;;;9.40;99.90;;;;;;4974971;28;20110;-75
2023/12/31 09:42:56;;;;;;;4.25;1.38;;;9.40;99.90;;;;;;5019165;28;20601;-75
2023/12/31 09:45:23;;;;;;;2.70;1.90;;;9.40;99.90;;;;;;4995050;28;20048;-74
2023/12/31 09:47:54;;;;;;;7.68;1.88;;;9.40;99.90;;;;;;5001083;28;20034;-74
2023/12/31 09:50:23;;;;;;;3.58;1.83;;;9.40;99.90;;;;;;4998348;28;20097;-74
2023/12/31 09:52:50;;;;;;;3.53;1.98;;;9.50;99.90;;;;;;5016672;28;20042;-75
2023/12/31 09:55:18;;;;;;;3.88;2.13;;;9.50;99.90;;;;;;5001154;28;20117;-74
2023/12/31 09:57:51;;;;;;;5.13;1.90;;;9.50;99.90;;;;;;4999536;28;20042;-74
2023/12/31 10:00:17;;;;;;;4.15;1.67;;;9.60;99.90;;;;;;5012352;28;20074;-75
2023/12/31 10:02:45;;;;;;;3.55;1.98;;;9.60;99.90;;;;;;4983888;28;20048;-74
2023/12/31 10:05:12;;;;;;;4.97;2.03;;;9.70;99.90;;;;;;5000926;28;20554;-75
2023/12/31 10:07:38;;;;;;;4.35;1.92;;;9.70;99.90;;;;;;5018468;28;20081;-74
2023/12/31 10:10:05;;;;;;;3.67;1.95;;;9.80;99.90;;;;;;5015134;28;20050;-75
2023/12/31 10:12:31;;;;;;;7.30;1.85;;;9.80;99.90;;;;;;5001222;28;20784;-75
2023/12/31 10:14:57;;;;;;;2.80;1.95;;;9.80;99.90;;;;;;4981484;28;20038;-75
2023/12/31 10:17:25;;;;;;;3.47;1.60;;;9.90;99.90;;;;;;5001297;28;20502;-75
2023/12/31 10:19:51;;;;;;;4.53;1.90;;;9.90;99.90;;;;;;4999690;28;20049;-74
2023/12/31 10:22:17;;;;;;;3.50;2.15;;;10.00;99.90;;;;;;4984540;28;20275;-75
2023/12/31 10:24:43;;;;;;;2.92;2.03;;;10.00;99.90;;;;;;5000855;28;20109;-74
2023/12/31 10:27:09;;;;;;;4.25;1.88;;;10.00;99.90;;;;;;4999583;28;20050;-74
2023/12/31 10:29:37;;;;;;;1.60;1.42;;;10.10;99.90;;;;;;4984412;28;20048;-75
2023/12/31 10:32:04;;;;;;;3.70;2.00;;;10.10;99.90;;;;;;4997993;28;20087;-75
2023/12/31 10:34:30;;;;;;;8.80;1.83;;;10.10;99.90;;;;;;4987351;28;20084;-74
2023/12/31 10:37:06;;;;;;;1.83;1.30;;;10.30;99.90;;;;;;4981872;28;20054;-75
2023/12/31 10:39:34;;;;;;;2.40;1.42;;;10.30;99.90;;;;;;5000850;28;20046;-75
2023/12/31 10:42:04;;;;;;;1.95;1.40;;;10.30;99.90;;;;;;5016782;28;20433;-75
2023/12/31 10:44:34;;;;;;;2.40;1.17;;;10.40;99.90;;;;;;4991989;28;20408;-75
2023/12/31 10:47:05;;;;;;;1.80;1.23;;;10.40;99.90;;;;;;4999649;28;20133;-75
2023/12/31 10:49:34;;;;;;;3.75;1.42;;;10.40;99.90;;;;;;4999165;28;20049;-75
2023/12/31 10:52:04;;;;;;;3.28;1.17;;;10.40;99.90;;;;;;4999320;28;20309;-75
2023/12/31 10:54:41;;;;;;;3.05;1.52;;;10.30;99.90;;;;;;4982561;28;20046;-74
2023/12/31 10:57:09;;;;;;;2.85;1.70;;;10.30;99.90;;;;;;4993702;28;20046;-75
2023/12/31 10:59:35;;;;;;;2.03;1.15;;;10.30;99.90;;;;;;4999262;28;20050;-74
2023/12/31 11:02:04;;;;;;;2.10;1.33;;;10.20;99.90;;;;;;4993441;28;20038;-74
2023/12/31 11:04:31;;;;;;;1.52;0.95;;;10.20;99.90;;;;;;4982374;28;20159;-75
2023/12/31 11:06:57;;;;;;;1.48;0.90;;;10.20;99.90;;;;;;4981746;28;20038;-75
2023/12/31 11:09:25;;;;;;;2.20;1.23;;;10.10;99.90;;;;;;4992039;28;20049;-75
2023/12/31 11:11:51;;;;;;;2.97;1.27;;;10.10;99.90;;;;;;4997392;28;20048;-75
2023/12/31 11:14:27;;;;;;;2.13;1.30;;;10.10;99.90;;;;;;4999111;28;20134;-75
2023/12/31 11:17:13;;;;;;;1.30;0.68;;;10.00;99.90;;;;;;4999893;28;20094;-75
2023/12/31 11:20:08;;;;;;;4.60;1.15;;;9.90;99.90;;;;;;5003936;28;20072;-75
2023/12/31 11:22:54;;;;;;;1.40;0.90;;;9.90;99.90;;;;;;4999806;28;20227;-75
2023/12/31 11:25:21;;;;;;;2.80;1.20;;;9.80;99.90;;;;;;4995435;28;20041;-75
2023/12/31 11:27:53;;;;;;;2.10;1.27;;;9.80;99.90;;;;;;5012708;28;20050;-76
2023/12/31 11:30:45;;;;;;;1.17;0.30;;;9.60;99.90;;;;;;5009326;28;20085;-76
2023/12/31 11:33:11;;;;;;;0.65;0.30;;;9.30;99.90;;;;;;5014056;28;20038;-77
2023/12/31 11:35:44;;;;;;;1.10;0.32;;;9.00;99.90;;;;;;4981841;28;20065;-77
2023/12/31 11:38:10;;;;;;;0.60;0.30;;;8.70;99.90;;;;;;4996935;28;20062;-76
2023/12/31 11:40:36;;;;;;;3.40;0.95;;;8.60;99.90;;;;;;5012025;28;20150;-77
2023/12/31 11:43:11;;;;;;;2.42;0.80;;;8.50;99.90;;;;;;4995076;28;20049;-74
2023/12/31 11:45:54;;;;;;;1.15;0.70;;;8.40;99.90;;;;;;5016418;28;20098;-75
2023/12/31 11:48:20;;;;;;;2.20;0.80;;;8.40;99.90;;;;;;5005756;28;20053;-74
2023/12/31 11:50:58;;;;;;;0.73;0.30;;;8.30;99.90;;;;;;5010337;28;20049;-74
2023/12/31 11:53:26;;;;;;;0.73;0.50;;;8.20;99.90;;;;;;4986441;28;20042;-74
2023/12/31 11:55:59;;;;;;;0.82;0.40;;;8.10;99.90;;;;;;4998957;28;20106;-74
2023/12/31 11:58:28;;;;;;;1.15;1.05;;;8.10;99.90;;;;;;4998210;28;20049;-74
2023/12/31 12:00:54;;;;;;;0.32;0.32;;;8.00;99.90;;;;;;4999679;28;20054;-74
2023/12/31 12:03:20;;;;;;;0.35;0.35;;;8.00;99.90;;;;;;4998830;28;20069;-74
2023/12/31 12:05:47;;;;;;;2.03;0.30;;;8.00;99.90;;;;;;5083510;28;20048;-74
2023/12/31 12:08:14;;;;;;;2.25;0.47;;;8.10;99.90;;;;;;4999130;28;20049;-74
2023/12/31 12:10:43;;;;;;;0.50;0.30;;;8.20;99.90;;;;;;4997144;28;20034;-74
2023/12/31 12:13:10;;;;;;;0.45;0.30;;;8.40;99.90;;;;;;4982926;28;20046;-74
2023/12/31 12:15:36;;;;;;;1.15;0.63;;;8.60;99.90;;;;;;5014543;28;20074;-74
2023/12/31 12:18:22;;;;;;;0.75;0.50;;;8.80;99.90;;;;;;5013986;28;20105;-74
2023/12/31 12:20:48;;;;;;;1.02;0.47;;;8.90;99.90;;;;;;4999761;28;20080;-75
2023/12/31 12:23:21;;;;;;;0.52;0.40;;;8.90;99.90;;;;;;4997996;28;20054;-74
2023/12/31 12:25:48;;;;;;;0.57;0.57;;;8.80;99.90;;;;;;4992764;28;20064;-74
2023/12/31 12:28:14;;;;;;;1.15;0.47;;;8.80;99.90;;;;;;4996493;28;20108;-74
2023/12/31 12:30:43;;;;;;;0.40;0.35;;;8.70;99.90;;;;;;4999655;28;20041;-74
2023/12/31 12:33:11;;;;;;;0.50;0.32;;;8.60;99.90;;;;;;4998570;28;20038;-74
2023/12/31 12:35:38;;;;;;;0.80;0.60;;;8.60;99.90;;;;;;4980981;28;20049;-74
2023/12/31 12:38:05;;;;;;;1.98;0.70;;;8.60;99.90;;;;;;5015838;28;20069;-74
2023/12/31 12:40:32;;;;;;;1.60;0.70;;;8.60;99.90;;;;;;4983442;28;20053;-74
2023/12/31 12:43:01;;;;;;;0.93;0.63;;;8.60;99.90;;;;;;4982475;28;20042;-74
2023/12/31 12:45:26;;;;;;;2.40;1.20;;;8.60;99.90;;;;;;4998707;28;20042;-73
2023/12/31 12:47:52;;;;;;;1.42;0.77;;;8.70;99.90;;;;;;4982314;28;20114;-73
2023/12/31 12:50:18;;;;;;;4.30;0.73;;;8.70;99.90;;;;;;5003102;28;20074;-74
2023/12/31 12:52:44;;;;;;;1.40;0.80;;;8.80;99.90;;;;;;4967951;28;20122;-76